Página principal
Imagens de satélite Previsões 15 diasClimaMeteorologia maritima Ciclones Descargas eléctricas AeroportosFAQ Notícias Sobre
Tempo : Europa África América do Norte América do Sul Ásia Austrália-Oceania Outros
Línguas Contacto

Belo Horizonte, Minas Gerais, Brasil

Tancredo Neves

latitude: 19-56S, longitude: 043-56W, altura: 850 m


METAR: SBCF 171900Z 09012KT 9999 FEW040 30/12 Q1017
short-TAF: desactualizado (61768 horas)
long-TAF: SBCF 171500Z 1718/1818 07007KT CAVOK TX32/1718Z TN20/1809Z BECMG 1720/1722 10006KT CAVOK RMK PDF

Hora: 16:36 (19:36 UTC)

Observação actual do tempo

O boletim foi feito há 36 minutos, às 19:00 UTC  
Vento 12 kt de este
Temperatura 30°C
Humidade 33%
Pressão 1017 hPa
Visibilidade 10 km ou mais
Poucas nuvens a uma altura de 4000 ft

Mudar unidades

Previsão

O boletim foi feito há 3 horas e 54 minutos, às 15:42 UTC  
Previsão válida de 17 às 18 UTC a 18 às 18 UTC
Vento 07 kt de es-nordeste
Visibilidade 10 km ou mais
sem nuvens abaixo de 1500 metros e sem cumulonimbus
Tornando-se
de 17 às 20 UTC a 17 às 22 UTC
Vento 06 kt de este
Visibilidade 10 km ou mais
sem nuvens abaixo de 1500 metros e sem cumulonimbus
As informações contidas neste sítio estão sujeitas a uma declaração de exoneração de responsabilidade
Tempo : Europa África América do Norte América do Sul Ásia Austrália-Oceania Outros
Imagens de satélite Previsões 15 diasClimaMeteorologia maritima Ciclones Descargas eléctricas AeroportosFAQ Línguas Contacto Notícias Sobre